Ezeiza, Argentina

12:17 PM ART on May 23, 2015 (GMT -0300)
Ezeiza International Ministro Pistarini | | Change Station
CLOSE
Current Station
Airport
Location: Ezeiza,
Elevation: 66 ft
Nearby Weather Stations

Elev 66 ft 34.82 °S, 58.54 °W | Updated 17 minutes ago

Light Rain
Light Rain Mist
57 °F
Feels Like 57 °F
N
12
Wind Variable Wind from South

Today
High -- | Low -- °F
--% Chance of Precip.
Yesterday
High -- | Low -- °F
Precip. -- in
7:46 AM 5:54 PM
Waxing Crescent, 30% visible
Pressure 29.80 in
Visibility 3.7 miles
Clouds Mostly Cloudy 200 ft
Overcast 5000 ft
Dew Point 55 °F
Humidity 94%
Rainfall 0.00 in
Snow Depth Not available.
UV 1 out of 12
Pollen Not available.
Air Quality Not available.
Flu Activity Not available.
METAR SAEZ 231500Z 17010KT 6000 -RA BR BKN002 OVC050 14/13 Q1009

More Conditions Fewer Conditions

Pressure 29.80 in
Visibility 3.7 miles
Clouds Mostly Cloudy 200 ft
Overcast 5000 ft
Dew Point 55 °F
Humidity 94%
Rainfall 0.00 in
Snow Depth Not available.
UV 1 out of 12
Pollen Not available.
Air Quality Not available.
Flu Activity Not available.
METAR SAEZ 231500Z 17010KT 6000 -RA BR BKN002 OVC050 14/13 Q1009

More Conditions Fewer Conditions

10-Day Weather Forecast

Almanac

Astronomy

May. 23, 2015 Rise Set
Actual Time
Civil Twilight
Nautical Twilight
Astronomical Twilight
Moon
Length of Visible Light
Length of Day
Tomorrow will be .
, % of the Moon is Illuminated

Today's Extremes

Country Highs Country Lows

Community

WunderPhotos

Upload Photos

1,823,488 photos uploaded!

WunderBlogs® & News

Nearby

Air Quality

  Air Quality AQ Index Pollutant
Not available.

Snow Depth

Station Depth Elevation

Earthquake Activity

City Distance Mag. Time & Date
Minimum magnitude displayed is 2.5.

Coastal Water Temperatures

Place Temperature

Stations

Nearby Weather Stations

Station Location Temp. Windchill Dew Point Humidity Wind Precip. Elev Updated Type